sensor_id;sensor_type;location;lat;lon;timestamp;P1;durP1;ratioP1;P2;durP2;ratioP2
15528;SDS011;7866;52.280;9.500;2022-12-18T00:04:15;6.73;;;4.47;;
15528;SDS011;7866;52.280;9.500;2022-12-18T00:09:22;5.80;;;4.83;;
15528;SDS011;7866;52.280;9.500;2022-12-18T00:14:24;5.40;;;4.10;;
15528;SDS011;7866;52.280;9.500;2022-12-18T00:19:26;6.00;;;4.20;;
15528;SDS011;7866;52.280;9.500;2022-12-18T00:24:30;5.00;;;4.10;;
15528;SDS011;7866;52.280;9.500;2022-12-18T00:29:31;6.13;;;4.33;;
15528;SDS011;7866;52.280;9.500;2022-12-18T00:34:33;5.43;;;4.50;;
15528;SDS011;7866;52.280;9.500;2022-12-18T00:39:36;5.07;;;4.13;;
15528;SDS011;7866;52.280;9.500;2022-12-18T00:44:38;4.63;;;3.70;;
15528;SDS011;7866;52.280;9.500;2022-12-18T00:49:40;5.23;;;3.87;;
15528;SDS011;7866;52.280;9.500;2022-12-18T00:54:43;5.80;;;4.50;;
15528;SDS011;7866;52.280;9.500;2022-12-18T00:59:44;4.57;;;3.90;;
15528;SDS011;7866;52.280;9.500;2022-12-18T01:04:46;4.20;;;3.80;;
15528;SDS011;7866;52.280;9.500;2022-12-18T01:09:51;4.87;;;4.37;;
15528;SDS011;7866;52.280;9.500;2022-12-18T01:14:53;4.50;;;4.10;;
15528;SDS011;7866;52.280;9.500;2022-12-18T01:19:55;5.30;;;4.33;;
15528;SDS011;7866;52.280;9.500;2022-12-18T01:24:58;4.50;;;3.77;;
15528;SDS011;7866;52.280;9.500;2022-12-18T01:29:59;6.37;;;4.20;;
15528;SDS011;7866;52.280;9.500;2022-12-18T01:35:01;5.90;;;4.13;;
15528;SDS011;7866;52.280;9.500;2022-12-18T01:40:05;5.33;;;4.00;;
15528;SDS011;7866;52.280;9.500;2022-12-18T01:45:22;5.17;;;3.80;;
15528;SDS011;7866;52.280;9.500;2022-12-18T01:50:28;4.90;;;3.73;;
15528;SDS011;7866;52.280;9.500;2022-12-18T01:55:36;5.00;;;3.97;;
15528;SDS011;7866;52.280;9.500;2022-12-18T02:00:42;4.27;;;3.73;;
15528;SDS011;7866;52.280;9.500;2022-12-18T02:05:47;4.30;;;3.90;;
15528;SDS011;7866;52.280;9.500;2022-12-18T02:11:00;4.87;;;3.63;;
15528;SDS011;7866;52.280;9.500;2022-12-18T02:16:09;3.90;;;3.50;;
15528;SDS011;7866;52.280;9.500;2022-12-18T02:21:22;5.43;;;3.70;;
15528;SDS011;7866;52.280;9.500;2022-12-18T02:26:33;4.17;;;3.70;;
15528;SDS011;7866;52.280;9.500;2022-12-18T02:31:39;5.60;;;4.13;;
15528;SDS011;7866;52.280;9.500;2022-12-18T02:36:45;5.67;;;4.13;;
15528;SDS011;7866;52.280;9.500;2022-12-18T02:41:51;5.27;;;4.00;;
15528;SDS011;7866;52.280;9.500;2022-12-18T02:46:53;5.03;;;3.60;;
15528;SDS011;7866;52.280;9.500;2022-12-18T02:51:56;5.30;;;3.67;;
15528;SDS011;7866;52.280;9.500;2022-12-18T02:57:10;4.47;;;3.57;;
15528;SDS011;7866;52.280;9.500;2022-12-18T03:02:31;4.43;;;3.53;;
15528;SDS011;7866;52.280;9.500;2022-12-18T03:07:52;3.57;;;3.20;;
15528;SDS011;7866;52.280;9.500;2022-12-18T03:13:00;5.07;;;3.57;;
15528;SDS011;7866;52.280;9.500;2022-12-18T03:18:06;5.80;;;3.53;;
15528;SDS011;7866;52.280;9.500;2022-12-18T03:23:12;3.57;;;3.27;;
15528;SDS011;7866;52.280;9.500;2022-12-18T03:28:19;5.13;;;2.80;;
15528;SDS011;7866;52.280;9.500;2022-12-18T03:33:24;4.17;;;2.80;;
15528;SDS011;7866;52.280;9.500;2022-12-18T03:38:30;3.30;;;3.00;;
15528;SDS011;7866;52.280;9.500;2022-12-18T03:43:36;4.03;;;3.40;;
15528;SDS011;7866;52.280;9.500;2022-12-18T03:48:46;4.10;;;3.43;;
15528;SDS011;7866;52.280;9.500;2022-12-18T03:53:53;4.80;;;3.30;;
15528;SDS011;7866;52.280;9.500;2022-12-18T03:59:01;4.57;;;3.67;;
15528;SDS011;7866;52.280;9.500;2022-12-18T04:04:04;5.47;;;3.67;;
15528;SDS011;7866;52.280;9.500;2022-12-18T04:09:08;4.30;;;3.37;;
15528;SDS011;7866;52.280;9.500;2022-12-18T04:14:11;5.10;;;3.07;;
15528;SDS011;7866;52.280;9.500;2022-12-18T04:19:13;4.30;;;3.13;;
15528;SDS011;7866;52.280;9.500;2022-12-18T04:24:15;4.83;;;3.67;;
15528;SDS011;7866;52.280;9.500;2022-12-18T04:29:18;3.80;;;3.30;;
15528;SDS011;7866;52.280;9.500;2022-12-18T04:34:19;4.20;;;3.47;;
15528;SDS011;7866;52.280;9.500;2022-12-18T04:39:21;3.70;;;3.40;;
15528;SDS011;7866;52.280;9.500;2022-12-18T04:44:24;3.53;;;3.10;;
15528;SDS011;7866;52.280;9.500;2022-12-18T04:49:26;4.07;;;3.37;;
15528;SDS011;7866;52.280;9.500;2022-12-18T04:54:30;5.60;;;4.07;;
15528;SDS011;7866;52.280;9.500;2022-12-18T04:59:33;4.97;;;3.60;;
15528;SDS011;7866;52.280;9.500;2022-12-18T05:04:34;5.50;;;3.30;;
15528;SDS011;7866;52.280;9.500;2022-12-18T05:09:36;3.47;;;3.17;;
15528;SDS011;7866;52.280;9.500;2022-12-18T05:14:39;6.47;;;5.03;;
15528;SDS011;7866;52.280;9.500;2022-12-18T05:19:40;4.40;;;3.60;;
15528;SDS011;7866;52.280;9.500;2022-12-18T05:24:42;4.07;;;3.23;;
15528;SDS011;7866;52.280;9.500;2022-12-18T05:29:45;3.37;;;3.07;;
15528;SDS011;7866;52.280;9.500;2022-12-18T05:34:47;3.87;;;3.03;;
15528;SDS011;7866;52.280;9.500;2022-12-18T05:39:48;4.20;;;2.97;;
15528;SDS011;7866;52.280;9.500;2022-12-18T05:44:51;3.30;;;2.80;;
15528;SDS011;7866;52.280;9.500;2022-12-18T05:49:53;4.07;;;3.03;;
15528;SDS011;7866;52.280;9.500;2022-12-18T05:54:55;3.17;;;2.87;;
15528;SDS011;7866;52.280;9.500;2022-12-18T05:59:58;5.67;;;3.27;;
15528;SDS011;7866;52.280;9.500;2022-12-18T06:05:00;3.63;;;3.10;;
15528;SDS011;7866;52.280;9.500;2022-12-18T06:10:02;3.47;;;3.10;;
15528;SDS011;7866;52.280;9.500;2022-12-18T06:15:06;6.30;;;3.70;;
15528;SDS011;7866;52.280;9.500;2022-12-18T06:20:08;4.07;;;3.50;;
15528;SDS011;7866;52.280;9.500;2022-12-18T06:25:10;4.93;;;3.60;;
15528;SDS011;7866;52.280;9.500;2022-12-18T06:30:14;5.30;;;4.10;;
15528;SDS011;7866;52.280;9.500;2022-12-18T06:35:16;5.63;;;3.17;;
15528;SDS011;7866;52.280;9.500;2022-12-18T06:45:21;4.13;;;3.13;;
15528;SDS011;7866;52.280;9.500;2022-12-18T06:50:24;3.87;;;3.27;;
15528;SDS011;7866;52.280;9.500;2022-12-18T06:55:25;4.83;;;3.63;;
15528;SDS011;7866;52.280;9.500;2022-12-18T07:00:28;5.67;;;4.90;;
15528;SDS011;7866;52.280;9.500;2022-12-18T07:05:30;4.20;;;3.20;;
15528;SDS011;7866;52.280;9.500;2022-12-18T07:10:32;3.50;;;3.10;;
15528;SDS011;7866;52.280;9.500;2022-12-18T07:15:35;3.47;;;3.10;;
15528;SDS011;7866;52.280;9.500;2022-12-18T07:20:36;4.73;;;2.90;;
15528;SDS011;7866;52.280;9.500;2022-12-18T07:25:38;4.53;;;3.07;;
15528;SDS011;7866;52.280;9.500;2022-12-18T07:30:41;3.10;;;2.80;;
15528;SDS011;7866;52.280;9.500;2022-12-18T07:35:43;4.03;;;3.17;;
15528;SDS011;7866;52.280;9.500;2022-12-18T07:40:45;3.10;;;2.60;;
15528;SDS011;7866;52.280;9.500;2022-12-18T07:45:50;3.33;;;2.60;;
15528;SDS011;7866;52.280;9.500;2022-12-18T07:50:51;3.73;;;3.10;;
15528;SDS011;7866;52.280;9.500;2022-12-18T07:55:54;7.47;;;4.93;;
15528;SDS011;7866;52.280;9.500;2022-12-18T08:01:03;4.13;;;3.50;;
15528;SDS011;7866;52.280;9.500;2022-12-18T08:06:06;5.73;;;4.97;;
15528;SDS011;7866;52.280;9.500;2022-12-18T08:11:08;6.80;;;5.10;;
15528;SDS011;7866;52.280;9.500;2022-12-18T08:16:11;5.60;;;4.17;;
15528;SDS011;7866;52.280;9.500;2022-12-18T08:21:14;6.07;;;4.63;;
15528;SDS011;7866;52.280;9.500;2022-12-18T08:26:18;6.10;;;5.07;;
15528;SDS011;7866;52.280;9.500;2022-12-18T08:31:22;6.77;;;4.87;;
15528;SDS011;7866;52.280;9.500;2022-12-18T08:36:24;6.50;;;5.50;;
15528;SDS011;7866;52.280;9.500;2022-12-18T08:41:26;10.10;;;7.60;;
15528;SDS011;7866;52.280;9.500;2022-12-18T08:46:32;5.17;;;4.30;;
15528;SDS011;7866;52.280;9.500;2022-12-18T08:51:36;5.33;;;4.83;;
15528;SDS011;7866;52.280;9.500;2022-12-18T08:56:37;6.43;;;5.53;;
15528;SDS011;7866;52.280;9.500;2022-12-18T09:01:40;5.23;;;4.73;;
15528;SDS011;7866;52.280;9.500;2022-12-18T09:06:42;5.33;;;4.83;;
15528;SDS011;7866;52.280;9.500;2022-12-18T09:11:44;5.67;;;5.17;;
15528;SDS011;7866;52.280;9.500;2022-12-18T09:16:48;6.13;;;5.53;;
15528;SDS011;7866;52.280;9.500;2022-12-18T09:21:49;6.33;;;5.73;;
15528;SDS011;7866;52.280;9.500;2022-12-18T09:26:52;7.63;;;5.97;;
15528;SDS011;7866;52.280;9.500;2022-12-18T09:31:56;6.67;;;5.00;;
15528;SDS011;7866;52.280;9.500;2022-12-18T09:36:57;5.80;;;5.20;;
15528;SDS011;7866;52.280;9.500;2022-12-18T09:41:59;4.87;;;3.83;;
15528;SDS011;7866;52.280;9.500;2022-12-18T09:47:09;5.40;;;4.27;;
15528;SDS011;7866;52.280;9.500;2022-12-18T09:52:16;9.63;;;8.27;;
15528;SDS011;7866;52.280;9.500;2022-12-18T09:57:25;5.10;;;4.10;;
15528;SDS011;7866;52.280;9.500;2022-12-18T10:02:30;5.17;;;3.97;;
15528;SDS011;7866;52.280;9.500;2022-12-18T10:07:35;5.13;;;4.03;;
15528;SDS011;7866;52.280;9.500;2022-12-18T10:12:51;8.60;;;4.67;;
15528;SDS011;7866;52.280;9.500;2022-12-18T10:18:01;6.07;;;4.67;;
15528;SDS011;7866;52.280;9.500;2022-12-18T10:23:15;5.20;;;4.70;;
15528;SDS011;7866;52.280;9.500;2022-12-18T10:28:22;4.63;;;3.80;;
15528;SDS011;7866;52.280;9.500;2022-12-18T10:33:29;4.67;;;4.17;;
15528;SDS011;7866;52.280;9.500;2022-12-18T10:38:32;5.57;;;4.53;;
15528;SDS011;7866;52.280;9.500;2022-12-18T10:43:34;4.60;;;3.87;;
15528;SDS011;7866;52.280;9.500;2022-12-18T10:48:40;4.53;;;4.13;;
15528;SDS011;7866;52.280;9.500;2022-12-18T10:53:57;5.03;;;4.10;;
15528;SDS011;7866;52.280;9.500;2022-12-18T10:59:01;4.90;;;4.37;;
15528;SDS011;7866;52.280;9.500;2022-12-18T11:04:08;4.70;;;4.10;;
15528;SDS011;7866;52.280;9.500;2022-12-18T11:09:19;5.00;;;3.97;;
15528;SDS011;7866;52.280;9.500;2022-12-18T11:14:22;5.23;;;4.07;;
15528;SDS011;7866;52.280;9.500;2022-12-18T11:19:30;4.97;;;3.80;;
15528;SDS011;7866;52.280;9.500;2022-12-18T11:24:34;5.33;;;4.37;;
15528;SDS011;7866;52.280;9.500;2022-12-18T11:29:37;5.47;;;4.20;;
15528;SDS011;7866;52.280;9.500;2022-12-18T11:34:42;7.27;;;4.40;;
15528;SDS011;7866;52.280;9.500;2022-12-18T11:39:49;6.03;;;4.27;;
15528;SDS011;7866;52.280;9.500;2022-12-18T11:44:55;6.23;;;4.60;;
15528;SDS011;7866;52.280;9.500;2022-12-18T11:50:02;7.33;;;4.53;;
15528;SDS011;7866;52.280;9.500;2022-12-18T11:55:11;6.67;;;4.73;;
15528;SDS011;7866;52.280;9.500;2022-12-18T12:00:15;5.07;;;4.57;;
15528;SDS011;7866;52.280;9.500;2022-12-18T12:05:27;5.23;;;4.40;;
15528;SDS011;7866;52.280;9.500;2022-12-18T12:10:42;6.30;;;4.03;;
15528;SDS011;7866;52.280;9.500;2022-12-18T12:15:58;5.20;;;4.40;;
15528;SDS011;7866;52.280;9.500;2022-12-18T12:21:11;5.10;;;4.30;;
15528;SDS011;7866;52.280;9.500;2022-12-18T12:26:22;6.10;;;4.87;;
15528;SDS011;7866;52.280;9.500;2022-12-18T12:31:33;5.60;;;4.43;;
15528;SDS011;7866;52.280;9.500;2022-12-18T12:36:56;4.37;;;3.90;;
15528;SDS011;7866;52.280;9.500;2022-12-18T12:42:12;4.97;;;3.90;;
15528;SDS011;7866;52.280;9.500;2022-12-18T12:47:35;3.93;;;3.60;;
15528;SDS011;7866;52.280;9.500;2022-12-18T12:52:44;5.37;;;3.93;;
15528;SDS011;7866;52.280;9.500;2022-12-18T12:57:48;4.33;;;3.50;;
15528;SDS011;7866;52.280;9.500;2022-12-18T13:02:59;5.57;;;3.40;;
15528;SDS011;7866;52.280;9.500;2022-12-18T13:08:12;4.47;;;3.97;;
15528;SDS011;7866;52.280;9.500;2022-12-18T13:13:24;6.03;;;3.73;;
15528;SDS011;7866;52.280;9.500;2022-12-18T13:18:26;6.80;;;3.83;;
15528;SDS011;7866;52.280;9.500;2022-12-18T13:23:33;4.77;;;4.10;;
15528;SDS011;7866;52.280;9.500;2022-12-18T13:28:51;4.57;;;4.00;;
15528;SDS011;7866;52.280;9.500;2022-12-18T13:33:59;4.17;;;3.67;;
15528;SDS011;7866;52.280;9.500;2022-12-18T13:44:36;4.10;;;3.10;;
15528;SDS011;7866;52.280;9.500;2022-12-18T13:49:40;3.83;;;3.50;;
15528;SDS011;7866;52.280;9.500;2022-12-18T13:54:47;3.87;;;3.30;;
15528;SDS011;7866;52.280;9.500;2022-12-18T13:59:51;3.80;;;3.50;;
15528;SDS011;7866;52.280;9.500;2022-12-18T14:04:54;4.07;;;3.57;;
15528;SDS011;7866;52.280;9.500;2022-12-18T14:09:57;5.17;;;3.57;;
15528;SDS011;7866;52.280;9.500;2022-12-18T14:15:01;4.13;;;3.43;;
15528;SDS011;7866;52.280;9.500;2022-12-18T14:20:05;4.50;;;3.70;;
15528;SDS011;7866;52.280;9.500;2022-12-18T14:25:16;4.63;;;4.00;;
15528;SDS011;7866;52.280;9.500;2022-12-18T14:30:23;5.70;;;4.60;;
15528;SDS011;7866;52.280;9.500;2022-12-18T14:35:30;4.70;;;3.87;;
15528;SDS011;7866;52.280;9.500;2022-12-18T14:40:33;5.50;;;3.83;;
15528;SDS011;7866;52.280;9.500;2022-12-18T14:45:38;4.67;;;3.53;;
15528;SDS011;7866;52.280;9.500;2022-12-18T14:50:42;8.53;;;3.97;;
15528;SDS011;7866;52.280;9.500;2022-12-18T14:55:46;5.73;;;3.97;;
15528;SDS011;7866;52.280;9.500;2022-12-18T15:00:49;4.13;;;3.73;;
15528;SDS011;7866;52.280;9.500;2022-12-18T15:05:51;3.30;;;3.00;;
15528;SDS011;7866;52.280;9.500;2022-12-18T15:10:54;3.90;;;3.50;;
15528;SDS011;7866;52.280;9.500;2022-12-18T15:15:57;3.63;;;3.20;;
15528;SDS011;7866;52.280;9.500;2022-12-18T15:21:07;3.40;;;3.10;;
15528;SDS011;7866;52.280;9.500;2022-12-18T15:26:12;4.17;;;3.77;;
15528;SDS011;7866;52.280;9.500;2022-12-18T15:31:21;3.40;;;3.00;;
15528;SDS011;7866;52.280;9.500;2022-12-18T15:36:28;3.87;;;3.47;;
15528;SDS011;7866;52.280;9.500;2022-12-18T15:41:32;5.43;;;3.40;;
15528;SDS011;7866;52.280;9.500;2022-12-18T15:46:35;3.50;;;3.00;;
15528;SDS011;7866;52.280;9.500;2022-12-18T15:51:37;4.33;;;3.03;;
15528;SDS011;7866;52.280;9.500;2022-12-18T15:56:41;4.10;;;3.13;;
15528;SDS011;7866;52.280;9.500;2022-12-18T16:02:00;3.70;;;3.30;;
15528;SDS011;7866;52.280;9.500;2022-12-18T16:07:01;5.30;;;3.67;;
15528;SDS011;7866;52.280;9.500;2022-12-18T16:12:05;4.43;;;3.50;;
15528;SDS011;7866;52.280;9.500;2022-12-18T16:17:11;4.00;;;3.50;;
15528;SDS011;7866;52.280;9.500;2022-12-18T16:22:17;5.87;;;4.60;;
15528;SDS011;7866;52.280;9.500;2022-12-18T16:27:23;6.23;;;4.87;;
15528;SDS011;7866;52.280;9.500;2022-12-18T16:32:25;5.27;;;4.10;;
15528;SDS011;7866;52.280;9.500;2022-12-18T16:37:27;5.87;;;4.13;;
15528;SDS011;7866;52.280;9.500;2022-12-18T16:42:30;4.43;;;4.03;;
15528;SDS011;7866;52.280;9.500;2022-12-18T16:47:31;4.80;;;4.07;;
15528;SDS011;7866;52.280;9.500;2022-12-18T16:52:34;4.33;;;3.73;;
15528;SDS011;7866;52.280;9.500;2022-12-18T16:57:37;5.77;;;4.53;;
15528;SDS011;7866;52.280;9.500;2022-12-18T17:02:38;4.80;;;4.23;;
15528;SDS011;7866;52.280;9.500;2022-12-18T17:07:40;5.30;;;4.50;;
15528;SDS011;7866;52.280;9.500;2022-12-18T17:12:43;4.90;;;4.17;;
15528;SDS011;7866;52.280;9.500;2022-12-18T17:17:45;5.30;;;4.50;;
15528;SDS011;7866;52.280;9.500;2022-12-18T17:22:47;5.13;;;4.10;;
15528;SDS011;7866;52.280;9.500;2022-12-18T17:27:50;5.27;;;3.90;;
15528;SDS011;7866;52.280;9.500;2022-12-18T17:32:52;4.07;;;3.67;;
15528;SDS011;7866;52.280;9.500;2022-12-18T17:37:53;5.40;;;4.00;;
15528;SDS011;7866;52.280;9.500;2022-12-18T17:42:56;5.67;;;4.33;;
15528;SDS011;7866;52.280;9.500;2022-12-18T17:47:59;4.63;;;4.10;;
15528;SDS011;7866;52.280;9.500;2022-12-18T17:53:00;4.50;;;3.80;;
15528;SDS011;7866;52.280;9.500;2022-12-18T17:58:04;5.13;;;4.30;;
15528;SDS011;7866;52.280;9.500;2022-12-18T18:03:05;6.23;;;4.20;;
15528;SDS011;7866;52.280;9.500;2022-12-18T18:08:07;6.43;;;4.60;;
15528;SDS011;7866;52.280;9.500;2022-12-18T18:13:15;8.37;;;5.23;;
15528;SDS011;7866;52.280;9.500;2022-12-18T18:18:37;8.10;;;5.00;;
15528;SDS011;7866;52.280;9.500;2022-12-18T18:23:39;6.90;;;5.03;;
15528;SDS011;7866;52.280;9.500;2022-12-18T18:28:42;6.33;;;4.60;;
15528;SDS011;7866;52.280;9.500;2022-12-18T18:33:43;5.83;;;5.07;;
15528;SDS011;7866;52.280;9.500;2022-12-18T18:38:45;5.60;;;4.40;;
15528;SDS011;7866;52.280;9.500;2022-12-18T18:43:48;5.63;;;4.33;;
15528;SDS011;7866;52.280;9.500;2022-12-18T18:48:54;10.07;;;7.07;;
15528;SDS011;7866;52.280;9.500;2022-12-18T18:53:58;5.30;;;4.70;;
15528;SDS011;7866;52.280;9.500;2022-12-18T18:59:01;7.73;;;5.40;;
15528;SDS011;7866;52.280;9.500;2022-12-18T19:04:03;7.00;;;5.13;;
15528;SDS011;7866;52.280;9.500;2022-12-18T19:09:05;7.90;;;6.90;;
15528;SDS011;7866;52.280;9.500;2022-12-18T19:14:09;8.10;;;6.23;;
15528;SDS011;7866;52.280;9.500;2022-12-18T19:19:12;6.43;;;4.70;;
15528;SDS011;7866;52.280;9.500;2022-12-18T19:24:16;10.07;;;5.83;;
15528;SDS011;7866;52.280;9.500;2022-12-18T19:29:19;6.33;;;5.10;;
15528;SDS011;7866;52.280;9.500;2022-12-18T19:34:23;5.97;;;5.30;;
15528;SDS011;7866;52.280;9.500;2022-12-18T19:39:24;6.63;;;5.70;;
15528;SDS011;7866;52.280;9.500;2022-12-18T19:44:27;7.80;;;5.80;;
15528;SDS011;7866;52.280;9.500;2022-12-18T19:49:29;7.63;;;5.57;;
15528;SDS011;7866;52.280;9.500;2022-12-18T19:54:31;9.03;;;6.37;;
15528;SDS011;7866;52.280;9.500;2022-12-18T19:59:34;7.63;;;6.00;;
15528;SDS011;7866;52.280;9.500;2022-12-18T20:04:36;7.80;;;6.00;;
15528;SDS011;7866;52.280;9.500;2022-12-18T20:09:38;7.50;;;6.17;;
15528;SDS011;7866;52.280;9.500;2022-12-18T20:14:41;7.90;;;6.33;;
15528;SDS011;7866;52.280;9.500;2022-12-18T20:19:42;9.90;;;6.87;;
15528;SDS011;7866;52.280;9.500;2022-12-18T20:24:44;12.70;;;5.97;;
15528;SDS011;7866;52.280;9.500;2022-12-18T20:29:47;14.07;;;6.73;;
15528;SDS011;7866;52.280;9.500;2022-12-18T20:34:49;17.53;;;8.90;;
15528;SDS011;7866;52.280;9.500;2022-12-18T20:39:50;20.93;;;7.33;;
15528;SDS011;7866;52.280;9.500;2022-12-18T20:44:53;12.37;;;7.87;;
15528;SDS011;7866;52.280;9.500;2022-12-18T20:49:55;12.07;;;7.37;;
15528;SDS011;7866;52.280;9.500;2022-12-18T20:54:57;11.73;;;8.00;;
15528;SDS011;7866;52.280;9.500;2022-12-18T21:00:08;12.33;;;7.43;;
15528;SDS011;7866;52.280;9.500;2022-12-18T21:05:11;12.70;;;7.83;;
15528;SDS011;7866;52.280;9.500;2022-12-18T21:10:13;11.63;;;7.97;;
15528;SDS011;7866;52.280;9.500;2022-12-18T21:15:16;14.23;;;8.43;;
15528;SDS011;7866;52.280;9.500;2022-12-18T21:20:18;11.47;;;8.07;;
15528;SDS011;7866;52.280;9.500;2022-12-18T21:25:20;12.00;;;8.47;;
15528;SDS011;7866;52.280;9.500;2022-12-18T21:30:23;13.47;;;8.37;;
15528;SDS011;7866;52.280;9.500;2022-12-18T21:35:25;16.17;;;9.57;;
15528;SDS011;7866;52.280;9.500;2022-12-18T21:40:27;12.77;;;9.37;;
15528;SDS011;7866;52.280;9.500;2022-12-18T21:45:30;11.93;;;8.50;;
15528;SDS011;7866;52.280;9.500;2022-12-18T21:50:31;13.63;;;9.20;;
15528;SDS011;7866;52.280;9.500;2022-12-18T21:55:33;12.10;;;8.57;;
15528;SDS011;7866;52.280;9.500;2022-12-18T22:00:36;13.10;;;9.70;;
15528;SDS011;7866;52.280;9.500;2022-12-18T22:05:38;21.47;;;9.50;;
15528;SDS011;7866;52.280;9.500;2022-12-18T22:10:40;15.70;;;10.27;;
15528;SDS011;7866;52.280;9.500;2022-12-18T22:15:44;14.10;;;9.77;;
15528;SDS011;7866;52.280;9.500;2022-12-18T22:20:45;13.33;;;9.80;;
15528;SDS011;7866;52.280;9.500;2022-12-18T22:25:47;13.27;;;9.67;;
15528;SDS011;7866;52.280;9.500;2022-12-18T22:30:50;14.83;;;10.43;;
15528;SDS011;7866;52.280;9.500;2022-12-18T22:35:52;17.03;;;10.97;;
15528;SDS011;7866;52.280;9.500;2022-12-18T22:40:53;12.77;;;9.37;;
15528;SDS011;7866;52.280;9.500;2022-12-18T22:45:57;17.33;;;10.27;;
15528;SDS011;7866;52.280;9.500;2022-12-18T22:51:01;15.67;;;10.03;;
15528;SDS011;7866;52.280;9.500;2022-12-18T22:56:03;15.33;;;10.63;;
15528;SDS011;7866;52.280;9.500;2022-12-18T23:01:07;14.10;;;9.90;;
15528;SDS011;7866;52.280;9.500;2022-12-18T23:06:19;14.60;;;10.37;;
15528;SDS011;7866;52.280;9.500;2022-12-18T23:11:22;13.57;;;10.20;;
15528;SDS011;7866;52.280;9.500;2022-12-18T23:16:26;13.97;;;10.30;;
15528;SDS011;7866;52.280;9.500;2022-12-18T23:21:28;15.80;;;10.30;;
15528;SDS011;7866;52.280;9.500;2022-12-18T23:26:30;12.90;;;9.90;;
15528;SDS011;7866;52.280;9.500;2022-12-18T23:31:34;15.30;;;10.50;;
15528;SDS011;7866;52.280;9.500;2022-12-18T23:36:37;15.50;;;10.70;;
15528;SDS011;7866;52.280;9.500;2022-12-18T23:41:39;15.70;;;10.53;;
15528;SDS011;7866;52.280;9.500;2022-12-18T23:46:42;15.90;;;10.53;;
15528;SDS011;7866;52.280;9.500;2022-12-18T23:51:43;14.60;;;10.70;;
15528;SDS011;7866;52.280;9.500;2022-12-18T23:56:48;15.73;;;10.97;;
